Time;durP1;ratioP1;P1;durP2;ratioP2;P2;SDS_P1;SDS_P2;PMS_P1;PMS_P2;Temp;Humidity;BMP_temperature;BMP_pressure;BME280_temperature;BME280_humidity;BME280_pressure;Samples;Min_cycle;Max_cycle;Signal;HPM_P1;HPM_P2
2021/12/20 00:00:22;;;;;;;23.50;6.07;;;6.30;99.90;;;;;;5083549;28;20042;-79
2021/12/20 00:02:50;;;;;;;21.25;5.05;;;6.30;99.90;;;;;;5084583;28;20044;-79
2021/12/20 00:05:18;;;;;;;34.95;5.90;;;6.40;99.90;;;;;;5071559;28;20043;-80
2021/12/20 00:07:44;;;;;;;22.08;6.60;;;6.30;99.90;;;;;;5076319;28;20032;-80
2021/12/20 00:10:10;;;;;;;22.30;3.75;;;6.40;99.90;;;;;;5087207;28;20557;-79
2021/12/20 00:12:35;;;;;;;16.85;4.03;;;6.40;99.90;;;;;;5077685;28;20032;-81
2021/12/20 00:15:01;;;;;;;22.58;2.83;;;6.40;99.90;;;;;;5078351;28;20475;-80
2021/12/20 00:17:27;;;;;;;33.92;6.38;;;6.40;99.90;;;;;;5073685;28;20075;-80
2021/12/20 00:19:52;;;;;;;33.90;6.00;;;6.40;99.90;;;;;;5091169;28;20044;-80
2021/12/20 00:22:18;;;;;;;29.10;5.13;;;6.40;99.90;;;;;;5089337;28;20043;-79
2021/12/20 00:24:43;;;;;;;34.00;3.78;;;6.40;99.90;;;;;;5075475;28;20521;-77
2021/12/20 00:27:11;;;;;;;17.65;3.80;;;6.30;99.90;;;;;;5086355;28;20040;-79
2021/12/20 00:29:37;;;;;;;23.73;4.07;;;6.30;99.90;;;;;;5086184;28;20477;-79
2021/12/20 00:32:04;;;;;;;42.08;6.57;;;6.40;99.90;;;;;;5067424;28;20078;-77
2021/12/20 00:34:29;;;;;;;22.70;4.93;;;6.40;99.90;;;;;;5081179;28;20043;-79
2021/12/20 00:37:04;;;;;;;20.33;4.90;;;6.40;99.90;;;;;;5060296;28;20040;-77
2021/12/20 00:42:15;;;;;;;37.47;6.65;;;6.50;99.90;;;;;;5071919;28;20053;-74
2021/12/20 00:44:40;;;;;;;23.67;5.10;;;6.40;99.90;;;;;;5068483;28;20141;-79
2021/12/20 00:47:06;;;;;;;25.92;6.18;;;6.50;99.90;;;;;;5071777;28;20056;-80
2021/12/20 00:49:32;;;;;;;14.13;2.75;;;6.40;99.90;;;;;;5078802;28;20058;-80
2021/12/20 00:51:57;;;;;;;24.48;4.10;;;6.40;99.90;;;;;;5076689;28;20055;-80
2021/12/20 00:54:24;;;;;;;16.40;2.53;;;6.30;99.90;;;;;;5067669;28;20040;-79
2021/12/20 00:56:50;;;;;;;28.90;4.80;;;6.40;99.90;;;;;;5079799;28;20040;-80
2021/12/20 00:59:16;;;;;;;20.75;3.53;;;6.30;99.90;;;;;;5064127;28;20051;-80
2021/12/20 01:01:41;;;;;;;29.45;4.63;;;6.30;99.90;;;;;;5070359;28;20101;-79
2021/12/20 01:04:08;;;;;;;20.40;4.18;;;6.20;99.90;;;;;;5079548;28;20044;-79
2021/12/20 01:06:33;;;;;;;16.05;4.20;;;6.20;99.90;;;;;;5092384;28;20042;-80
2021/12/20 01:09:00;;;;;;;25.85;3.38;;;6.10;99.90;;;;;;5074520;28;20403;-79
2021/12/20 01:11:27;;;;;;;19.52;3.78;;;6.10;99.90;;;;;;5085825;28;20071;-80
2021/12/20 01:13:54;;;;;;;16.50;3.47;;;6.10;99.90;;;;;;5059194;28;20047;-79
2021/12/20 01:16:29;;;;;;;23.85;4.30;;;6.10;99.90;;;;;;5069410;28;20052;-79
2021/12/20 01:18:56;;;;;;;10.52;3.75;;;6.20;99.90;;;;;;5079316;28;20055;-78
2021/12/20 01:21:22;;;;;;;14.15;2.90;;;6.30;99.90;;;;;;5087197;28;20048;-79
2021/12/20 01:23:47;;;;;;;18.25;2.85;;;6.40;99.90;;;;;;5068589;28;20102;-80
2021/12/20 01:26:13;;;;;;;15.88;3.13;;;6.40;99.90;;;;;;5086937;28;20169;-79
2021/12/20 01:28:42;;;;;;;31.48;5.40;;;6.40;99.90;;;;;;5083714;28;20060;-80
2021/12/20 01:31:08;;;;;;;24.10;4.90;;;6.40;99.90;;;;;;5066910;28;20444;-80
2021/12/20 01:33:34;;;;;;;12.73;2.60;;;6.40;99.90;;;;;;5070907;28;20048;-77
2021/12/20 01:35:59;;;;;;;12.63;2.53;;;6.50;99.90;;;;;;5072855;28;20082;-80
2021/12/20 01:38:25;;;;;;;14.10;2.53;;;6.50;99.90;;;;;;5069432;28;20660;-78
2021/12/20 01:40:51;;;;;;;14.32;3.35;;;6.50;99.90;;;;;;5061852;28;20102;-78
2021/12/20 01:43:18;;;;;;;11.20;1.80;;;6.50;99.90;;;;;;5064151;28;20032;-78
2021/12/20 01:45:48;;;;;;;9.10;2.00;;;6.50;99.90;;;;;;5073246;28;20043;-79
2021/12/20 01:48:17;;;;;;;16.90;3.03;;;6.50;99.90;;;;;;5077762;28;20409;-78
2021/12/20 01:53:26;;;;;;;11.18;2.42;;;6.50;99.90;;;;;;5071383;28;20502;-79
2021/12/20 01:55:54;;;;;;;16.75;2.60;;;6.50;99.90;;;;;;5078730;28;20123;-80
2021/12/20 01:58:21;;;;;;;20.60;4.40;;;6.50;99.90;;;;;;5077614;28;20085;-79
2021/12/20 02:03:32;;;;;;;11.52;2.92;;;6.50;99.90;;;;;;5070812;28;20048;-80
2021/12/20 02:05:59;;;;;;;6.88;1.60;;;6.50;99.90;;;;;;5069075;28;20498;-80
2021/12/20 02:08:28;;;;;;;9.75;2.28;;;6.50;99.90;;;;;;5074885;28;20044;-80
2021/12/20 02:11:00;;;;;;;11.43;2.88;;;6.50;99.90;;;;;;5082622;28;20047;-78
2021/12/20 02:13:29;;;;;;;11.23;2.08;;;6.60;99.90;;;;;;5078491;28;20062;-80
2021/12/20 02:16:00;;;;;;;19.23;2.72;;;6.50;99.90;;;;;;5089551;28;20087;-79
2021/12/20 02:18:26;;;;;;;17.17;3.78;;;6.50;99.90;;;;;;5084474;28;20045;-81
2021/12/20 02:20:52;;;;;;;11.55;2.03;;;6.50;99.90;;;;;;5082679;28;20044;-79
2021/12/20 02:23:18;;;;;;;12.38;2.63;;;6.50;99.90;;;;;;5061245;28;20124;-79
2021/12/20 02:25:43;;;;;;;18.00;2.92;;;6.50;99.90;;;;;;5070999;28;20036;-78
2021/12/20 02:28:14;;;;;;;17.63;2.63;;;6.50;99.90;;;;;;5083371;28;20045;-79
2021/12/20 02:38:49;;;;;;;12.73;2.90;;;6.50;99.90;;;;;;5061769;28;20044;-78
2021/12/20 02:41:17;;;;;;;15.90;4.35;;;6.50;99.90;;;;;;5041968;28;20049;-76
2021/12/20 02:43:54;;;;;;;14.13;3.80;;;6.50;99.90;;;;;;5068482;28;20028;-77
2021/12/20 02:49:04;;;;;;;14.95;3.47;;;6.50;99.90;;;;;;5081574;28;20131;-80
2021/12/20 02:51:31;;;;;;;24.42;3.85;;;6.60;99.90;;;;;;5058068;28;20367;-80
2021/12/20 02:53:58;;;;;;;19.58;2.95;;;6.50;99.90;;;;;;5074956;28;20040;-79
2021/12/20 02:56:24;;;;;;;10.10;3.45;;;6.50;99.90;;;;;;5076026;28;20033;-79
2021/12/20 02:58:50;;;;;;;14.73;3.67;;;6.50;99.90;;;;;;5075884;28;20060;-79
2021/12/20 03:01:17;;;;;;;11.93;2.65;;;6.50;99.90;;;;;;5075030;28;20036;-79
2021/12/20 03:03:43;;;;;;;16.00;2.45;;;6.50;99.90;;;;;;5084851;28;20072;-74
2021/12/20 03:06:11;;;;;;;15.32;3.92;;;6.50;99.90;;;;;;5073597;28;20080;-78
2021/12/20 03:08:39;;;;;;;11.27;3.47;;;6.50;99.90;;;;;;5074115;28;20037;-79
2021/12/20 03:11:04;;;;;;;13.40;1.85;;;6.50;99.90;;;;;;5057345;28;20067;-79
2021/12/20 03:13:30;;;;;;;20.08;3.28;;;6.50;99.90;;;;;;5077513;28;20616;-80
2021/12/20 03:15:56;;;;;;;13.52;2.38;;;6.50;99.90;;;;;;5072803;28;20379;-79
2021/12/20 03:18:22;;;;;;;8.48;2.22;;;6.40;99.90;;;;;;5086446;28;20090;-80
2021/12/20 03:20:47;;;;;;;11.82;2.13;;;6.40;99.90;;;;;;5090052;28;20459;-78
2021/12/20 03:23:13;;;;;;;13.80;2.42;;;6.40;99.90;;;;;;5090486;28;20482;-76
2021/12/20 03:25:38;;;;;;;10.57;3.17;;;6.30;99.90;;;;;;5090804;28;20040;-79
2021/12/20 03:28:04;;;;;;;10.55;2.25;;;6.40;99.90;;;;;;5077173;28;20060;-79
2021/12/20 03:30:29;;;;;;;11.13;1.95;;;6.40;99.90;;;;;;5055143;28;20040;-79
2021/12/20 03:32:55;;;;;;;16.23;2.35;;;6.30;99.90;;;;;;5088537;28;20132;-77
2021/12/20 03:35:21;;;;;;;23.25;4.35;;;6.30;99.90;;;;;;5072125;28;20048;-79
2021/12/20 03:37:46;;;;;;;7.70;3.15;;;6.30;99.90;;;;;;5090419;28;20052;-78
2021/12/20 03:40:13;;;;;;;11.32;1.52;;;6.30;99.90;;;;;;5071195;28;20048;-79
2021/12/20 03:42:42;;;;;;;14.88;4.10;;;6.30;99.90;;;;;;5076080;28;20052;-80
2021/12/20 03:45:08;;;;;;;7.75;2.60;;;6.30;99.90;;;;;;5068992;28;20489;-78
2021/12/20 03:47:34;;;;;;;10.05;3.67;;;6.30;99.90;;;;;;5071198;28;20491;-79
2021/12/20 03:50:00;;;;;;;10.18;2.33;;;6.30;99.90;;;;;;5072488;28;20175;-78
2021/12/20 03:52:25;;;;;;;12.82;2.22;;;6.20;99.90;;;;;;5053780;28;20055;-79
2021/12/20 03:54:51;;;;;;;12.15;2.15;;;6.20;99.90;;;;;;5082078;28;20036;-79
2021/12/20 03:57:17;;;;;;;13.73;2.47;;;6.20;99.90;;;;;;5081040;28;20040;-79
2021/12/20 03:59:46;;;;;;;7.72;2.15;;;6.20;99.90;;;;;;5076512;28;20044;-77
2021/12/20 04:02:16;;;;;;;9.65;2.25;;;6.20;99.90;;;;;;5078002;28;20047;-80
2021/12/20 04:04:41;;;;;;;7.00;2.20;;;6.20;99.90;;;;;;5086289;28;20048;-80
2021/12/20 04:07:07;;;;;;;8.98;2.65;;;6.20;99.90;;;;;;5088722;28;20050;-78
2021/12/20 04:09:32;;;;;;;10.73;2.95;;;6.20;99.90;;;;;;5070501;28;20665;-79
2021/12/20 04:11:58;;;;;;;9.80;1.60;;;6.10;99.90;;;;;;5058082;28;20483;-80
2021/12/20 04:14:23;;;;;;;8.75;1.92;;;6.10;99.90;;;;;;5088726;28;20031;-80
2021/12/20 04:16:49;;;;;;;13.98;2.78;;;6.10;99.90;;;;;;5086911;28;20067;-80
2021/12/20 04:19:15;;;;;;;11.27;1.48;;;6.10;99.90;;;;;;5084806;28;20105;-78
2021/12/20 04:21:40;;;;;;;18.65;3.33;;;6.00;99.90;;;;;;5086152;28;20444;-79
2021/12/20 04:24:06;;;;;;;12.70;1.65;;;6.00;99.90;;;;;;5077582;28;20097;-79
2021/12/20 04:26:32;;;;;;;12.07;2.13;;;6.00;99.90;;;;;;5079503;28;20043;-79
2021/12/20 04:28:57;;;;;;;20.48;4.03;;;5.90;99.90;;;;;;5088646;28;20383;-80
2021/12/20 04:31:23;;;;;;;10.18;2.88;;;6.00;99.90;;;;;;5081017;28;20067;-80
2021/12/20 04:33:49;;;;;;;18.05;2.95;;;6.00;99.90;;;;;;5089778;28;20047;-80
2021/12/20 04:36:14;;;;;;;24.40;2.53;;;5.90;99.90;;;;;;5083694;28;20074;-75
2021/12/20 04:38:40;;;;;;;12.35;2.08;;;5.90;99.90;;;;;;5089604;28;20098;-79
2021/12/20 04:41:06;;;;;;;18.83;3.17;;;5.90;99.90;;;;;;5078766;28;20549;-80
2021/12/20 04:43:31;;;;;;;19.05;1.90;;;5.90;99.90;;;;;;5069893;28;20123;-80
2021/12/20 04:45:57;;;;;;;9.77;1.63;;;5.90;99.90;;;;;;5070859;28;20044;-78
2021/12/20 04:48:23;;;;;;;41.25;4.55;;;5.90;99.90;;;;;;5060663;28;20047;-79
2021/12/20 04:50:48;;;;;;;11.07;1.65;;;5.80;99.90;;;;;;5080480;28;20039;-79
2021/12/20 04:53:14;;;;;;;9.18;1.00;;;5.80;99.90;;;;;;5087990;28;20040;-77
2021/12/20 04:55:39;;;;;;;9.52;2.90;;;5.80;99.90;;;;;;5088128;28;20036;-78
2021/12/20 04:58:06;;;;;;;9.65;1.42;;;5.70;99.90;;;;;;5081779;28;20091;-79
2021/12/20 05:00:34;;;;;;;8.65;3.17;;;5.70;99.90;;;;;;5081180;28;20032;-79
2021/12/20 05:02:59;;;;;;;12.27;2.25;;;5.70;99.90;;;;;;5076277;28;20032;-77
2021/12/20 05:05:25;;;;;;;40.00;4.32;;;5.70;99.90;;;;;;5070327;28;20494;-79
2021/12/20 05:07:53;;;;;;;6.53;1.70;;;5.70;99.90;;;;;;5078236;28;20042;-79
2021/12/20 05:10:26;;;;;;;7.07;2.08;;;5.70;99.90;;;;;;5079978;28;20097;-78
2021/12/20 05:12:58;;;;;;;9.23;2.40;;;5.80;99.90;;;;;;5060620;28;20044;-80
2021/12/20 05:15:25;;;;;;;9.55;2.10;;;5.70;99.90;;;;;;5054557;28;20045;-79
2021/12/20 05:17:52;;;;;;;6.50;1.25;;;5.70;99.90;;;;;;5055540;28;20097;-79
2021/12/20 05:20:17;;;;;;;8.50;1.40;;;5.70;99.90;;;;;;5076976;28;20044;-78
2021/12/20 05:22:44;;;;;;;28.30;3.97;;;5.60;99.90;;;;;;5088891;28;20036;-79
2021/12/20 05:25:10;;;;;;;11.45;2.25;;;5.60;99.90;;;;;;5088879;28;20482;-77
2021/12/20 05:27:36;;;;;;;11.70;1.80;;;5.60;99.90;;;;;;5081653;28;20036;-79
2021/12/20 05:30:03;;;;;;;9.13;2.25;;;5.60;99.90;;;;;;5081328;28;20040;-74
2021/12/20 05:32:29;;;;;;;21.48;4.10;;;5.60;99.90;;;;;;5064034;28;20041;-79
2021/12/20 05:34:55;;;;;;;14.18;2.80;;;5.60;99.90;;;;;;5087231;28;20052;-77
2021/12/20 05:37:20;;;;;;;10.75;1.83;;;5.50;99.90;;;;;;5088041;28;20123;-77
2021/12/20 05:39:46;;;;;;;11.20;1.80;;;5.50;99.90;;;;;;5080714;28;20037;-79
2021/12/20 05:42:12;;;;;;;15.02;2.42;;;5.50;99.90;;;;;;5068130;28;20486;-78
2021/12/20 05:44:37;;;;;;;21.13;1.95;;;5.50;99.90;;;;;;5080979;28;20044;-78
2021/12/20 05:47:04;;;;;;;7.78;1.30;;;5.50;99.90;;;;;;5061975;28;20410;-77
2021/12/20 05:49:31;;;;;;;9.82;2.17;;;5.50;99.90;;;;;;5050706;28;20094;-79
2021/12/20 05:52:03;;;;;;;17.25;3.63;;;5.50;99.90;;;;;;5076136;28;20100;-78
2021/12/20 05:54:30;;;;;;;13.73;2.15;;;5.40;99.90;;;;;;5074922;28;20082;-79
2021/12/20 05:56:56;;;;;;;10.60;2.45;;;5.50;99.90;;;;;;5089139;28;20044;-79
2021/12/20 05:59:21;;;;;;;12.25;3.38;;;5.40;99.90;;;;;;5075603;28;20525;-79
2021/12/20 06:01:47;;;;;;;10.95;3.05;;;5.40;99.90;;;;;;5059186;28;20028;-79
2021/12/20 06:04:12;;;;;;;8.15;2.25;;;5.50;99.90;;;;;;5072361;28;20509;-76
2021/12/20 06:06:38;;;;;;;6.93;1.20;;;5.40;99.90;;;;;;5081390;28;20122;-78
2021/12/20 06:09:04;;;;;;;6.50;1.13;;;5.50;99.90;;;;;;5091869;28;20417;-78
2021/12/20 06:11:30;;;;;;;11.95;2.55;;;5.50;99.90;;;;;;5090185;28;20039;-78
2021/12/20 06:13:55;;;;;;;9.82;1.70;;;5.50;99.90;;;;;;5054757;28;20513;-78
2021/12/20 06:16:21;;;;;;;9.90;1.70;;;5.50;99.90;;;;;;5055687;28;20065;-79
2021/12/20 06:18:46;;;;;;;11.63;2.88;;;5.60;99.90;;;;;;5056753;28;20548;-79
2021/12/20 06:21:13;;;;;;;11.35;1.80;;;5.60;99.90;;;;;;5065587;28;20647;-73
2021/12/20 06:23:39;;;;;;;12.68;1.80;;;5.50;99.90;;;;;;5068977;28;20083;-78
2021/12/20 06:26:04;;;;;;;13.93;3.13;;;5.60;99.90;;;;;;5059024;28;20045;-78
2021/12/20 06:28:30;;;;;;;14.68;3.03;;;5.60;99.90;;;;;;5054648;28;20539;-78
2021/12/20 06:30:56;;;;;;;10.63;2.17;;;5.60;99.90;;;;;;5051194;28;20191;-79
2021/12/20 06:33:22;;;;;;;4.28;1.00;;;5.60;99.90;;;;;;5065442;28;20566;-79
2021/12/20 06:35:48;;;;;;;18.73;3.35;;;5.60;99.90;;;;;;5069714;28;20037;-79
2021/12/20 06:38:19;;;;;;;17.20;3.05;;;5.50;99.90;;;;;;5063714;28;20043;-76
2021/12/20 06:40:45;;;;;;;10.18;3.08;;;5.50;99.90;;;;;;5066817;28;20078;-79
2021/12/20 06:43:10;;;;;;;7.40;1.45;;;5.50;99.90;;;;;;5070028;28;20063;-79
2021/12/20 06:45:36;;;;;;;12.25;2.08;;;5.50;99.90;;;;;;5060193;28;20048;-78
2021/12/20 06:48:03;;;;;;;7.18;2.70;;;5.50;99.90;;;;;;5068651;28;20127;-75
2021/12/20 06:50:28;;;;;;;10.45;3.05;;;5.40;99.90;;;;;;5071215;28;20056;-78
2021/12/20 06:52:55;;;;;;;5.13;1.85;;;5.30;99.90;;;;;;5052520;28;20499;-77
2021/12/20 06:55:20;;;;;;;9.73;3.35;;;5.30;99.90;;;;;;5067725;28;20055;-78
2021/12/20 06:57:46;;;;;;;8.00;1.50;;;5.20;99.90;;;;;;5068354;28;20032;-78
2021/12/20 07:00:12;;;;;;;12.30;2.15;;;5.20;99.90;;;;;;5065731;28;20040;-79
2021/12/20 07:02:38;;;;;;;6.32;1.30;;;5.10;99.90;;;;;;5062314;28;20089;-78
2021/12/20 07:05:04;;;;;;;12.20;3.08;;;5.00;99.90;;;;;;5067791;28;20048;-77
2021/12/20 07:07:29;;;;;;;8.48;3.22;;;4.90;99.90;;;;;;5075273;28;20451;-78
2021/12/20 07:09:55;;;;;;;7.43;1.45;;;5.00;99.90;;;;;;5082298;28;20087;-77
2021/12/20 07:12:21;;;;;;;9.88;3.55;;;4.90;99.90;;;;;;5067072;28;20180;-79
2021/12/20 07:14:50;;;;;;;12.77;2.13;;;4.70;99.90;;;;;;5055900;28;20155;-77
2021/12/20 07:17:16;;;;;;;4.10;1.13;;;4.60;99.90;;;;;;5061530;28;20498;-77
2021/12/20 07:19:42;;;;;;;14.63;2.50;;;4.60;99.90;;;;;;5051935;28;20048;-79
2021/12/20 07:22:07;;;;;;;11.75;2.30;;;4.50;99.90;;;;;;5054654;28;20032;-79
2021/12/20 07:24:33;;;;;;;9.18;1.77;;;4.40;99.90;;;;;;5069054;28;20501;-78
2021/12/20 07:26:58;;;;;;;17.73;1.80;;;4.20;99.90;;;;;;5078975;28;20044;-78
2021/12/20 07:29:24;;;;;;;13.38;2.83;;;4.20;99.90;;;;;;5069996;28;20040;-79
2021/12/20 07:31:50;;;;;;;9.23;1.45;;;4.10;99.90;;;;;;5061494;28;20037;-79
2021/12/20 07:34:15;;;;;;;13.10;1.77;;;4.00;99.90;;;;;;5063710;28;20112;-78
2021/12/20 07:36:41;;;;;;;10.00;2.35;;;3.90;99.90;;;;;;5066783;28;20037;-79
2021/12/20 07:39:07;;;;;;;24.83;3.17;;;3.90;99.90;;;;;;5060331;28;20032;-79
2021/12/20 07:41:33;;;;;;;8.23;2.47;;;3.90;99.90;;;;;;5064101;28;20044;-78
2021/12/20 07:43:59;;;;;;;11.73;2.88;;;3.80;99.90;;;;;;5056997;28;20045;-79
2021/12/20 07:46:25;;;;;;;7.88;1.58;;;3.70;99.90;;;;;;5062858;28;20044;-77
2021/12/20 07:48:51;;;;;;;11.27;1.92;;;3.70;99.90;;;;;;5061925;28;20107;-78
2021/12/20 07:51:17;;;;;;;12.00;2.22;;;3.60;99.90;;;;;;5069989;28;20044;-78
2021/12/20 07:53:44;;;;;;;6.95;1.38;;;3.50;99.90;;;;;;5069561;28;20041;-77
2021/12/20 07:56:10;;;;;;;9.25;2.45;;;3.40;99.90;;;;;;5070474;28;20055;-78
2021/12/20 07:58:35;;;;;;;22.20;3.22;;;3.30;99.90;;;;;;5064067;28;20041;-78
2021/12/20 08:01:04;;;;;;;13.65;2.65;;;3.40;99.90;;;;;;5061870;28;20068;-78
2021/12/20 08:03:30;;;;;;;15.55;2.78;;;3.30;99.90;;;;;;5058842;28;20053;-78
2021/12/20 08:05:56;;;;;;;10.82;1.80;;;3.40;99.90;;;;;;5066699;28;20055;-79
2021/12/20 08:08:21;;;;;;;7.80;1.92;;;3.20;99.90;;;;;;5076120;28;20044;-77
2021/12/20 08:10:47;;;;;;;9.38;1.80;;;3.20;99.90;;;;;;5069918;28;20127;-79
2021/12/20 08:13:15;;;;;;;6.10;1.70;;;3.30;99.90;;;;;;5059373;28;20134;-76
2021/12/20 08:15:40;;;;;;;9.95;1.55;;;3.10;99.90;;;;;;5066453;28;20165;-78
2021/12/20 08:18:06;;;;;;;6.25;1.35;;;2.90;99.90;;;;;;5067299;28;20127;-78
2021/12/20 08:20:32;;;;;;;12.35;4.03;;;2.80;99.90;;;;;;5048810;28;20052;-79
2021/12/20 08:22:58;;;;;;;19.48;4.10;;;2.90;99.90;;;;;;5062259;28;20036;-78
2021/12/20 08:25:24;;;;;;;21.65;3.67;;;3.00;99.90;;;;;;5066416;28;20051;-78
2021/12/20 08:27:50;;;;;;;14.48;1.83;;;3.10;99.90;;;;;;5066941;28;20044;-78
2021/12/20 08:30:17;;;;;;;16.30;2.30;;;2.90;99.90;;;;;;5048725;28;20048;-78
2021/12/20 08:32:43;;;;;;;13.50;2.22;;;3.00;99.90;;;;;;5060091;28;20486;-74
2021/12/20 08:35:11;;;;;;;16.52;3.58;;;3.00;99.90;;;;;;5055527;28;20052;-78
2021/12/20 08:37:37;;;;;;;6.40;1.77;;;3.10;99.90;;;;;;5063897;28;20052;-78
2021/12/20 08:40:05;;;;;;;15.52;2.63;;;3.10;99.90;;;;;;5060634;28;20526;-77
2021/12/20 08:42:31;;;;;;;18.63;2.97;;;3.20;99.90;;;;;;5064293;28;20042;-78
2021/12/20 08:44:56;;;;;;;12.70;4.18;;;3.20;99.90;;;;;;5058878;28;20074;-78
2021/12/20 08:47:22;;;;;;;28.15;7.38;;;3.20;99.90;;;;;;5063263;28;20040;-78
2021/12/20 08:49:48;;;;;;;9.10;3.65;;;3.30;99.90;;;;;;5056585;28;20072;-79
2021/12/20 08:52:14;;;;;;;22.40;5.13;;;3.30;99.90;;;;;;5067446;28;20052;-73
2021/12/20 08:54:41;;;;;;;15.35;4.57;;;3.30;99.90;;;;;;5057714;28;20037;-79
2021/12/20 08:57:07;;;;;;;12.20;5.03;;;3.40;99.90;;;;;;5055531;28;20082;-78
2021/12/20 08:59:34;;;;;;;11.00;3.25;;;3.50;99.90;;;;;;5058510;28;20044;-79
2021/12/20 09:02:00;;;;;;;12.77;5.15;;;3.50;99.90;;;;;;5055154;28;20048;-81
2021/12/20 09:04:26;;;;;;;18.65;4.65;;;3.30;99.90;;;;;;5048977;28;20052;-79
2021/12/20 09:06:52;;;;;;;8.10;3.78;;;3.50;99.90;;;;;;5059712;28;20048;-73
2021/12/20 09:09:18;;;;;;;18.42;3.45;;;3.70;99.90;;;;;;5069594;28;20045;-77
2021/12/20 09:11:45;;;;;;;16.45;4.13;;;3.70;99.90;;;;;;5053529;28;20041;-76
2021/12/20 09:14:13;;;;;;;27.88;4.65;;;3.70;99.90;;;;;;5059205;28;20051;-72
2021/12/20 09:16:39;;;;;;;8.52;3.20;;;3.60;99.90;;;;;;5053102;28;20404;-79
2021/12/20 09:19:05;;;;;;;18.92;4.68;;;3.80;99.90;;;;;;5055318;28;20103;-79
2021/12/20 09:21:31;;;;;;;17.45;3.63;;;3.90;99.90;;;;;;5049700;28;20515;-78
2021/12/20 09:23:56;;;;;;;24.65;3.83;;;3.90;99.90;;;;;;5049794;28;20048;-79
2021/12/20 09:26:22;;;;;;;8.95;2.42;;;4.00;99.90;;;;;;5053167;28;20051;-74
2021/12/20 09:28:48;;;;;;;27.45;5.50;;;4.20;99.90;;;;;;5052592;28;20183;-76
2021/12/20 09:31:14;;;;;;;22.95;5.05;;;4.20;99.90;;;;;;5052132;28;20059;-77
2021/12/20 09:33:39;;;;;;;19.60;3.75;;;4.20;99.90;;;;;;5067267;28;20041;-78
2021/12/20 09:36:05;;;;;;;15.73;3.25;;;4.30;99.90;;;;;;5069947;28;20052;-78
2021/12/20 09:38:31;;;;;;;21.95;4.20;;;4.30;99.90;;;;;;5075276;28;20044;-79
2021/12/20 09:41:13;;;;;;;25.13;5.40;;;4.30;99.90;;;;;;5069191;28;20115;-81
2021/12/20 09:43:48;;;;;;;25.70;6.55;;;4.50;99.90;;;;;;5057272;28;20127;-80
2021/12/20 09:46:16;;;;;;;15.73;3.83;;;4.50;99.90;;;;;;5052029;28;20049;-78
2021/12/20 09:48:44;;;;;;;13.68;3.42;;;4.50;99.90;;;;;;5053024;28;20076;-79
2021/12/20 09:51:10;;;;;;;30.33;5.13;;;4.50;99.90;;;;;;5063275;28;20041;-81
2021/12/20 09:53:36;;;;;;;34.08;4.93;;;4.60;99.90;;;;;;5073002;28;20032;-80
2021/12/20 09:56:02;;;;;;;20.45;4.47;;;4.70;99.90;;;;;;5073067;28;20098;-76
2021/12/20 09:58:35;;;;;;;15.40;3.03;;;4.70;99.90;;;;;;5070556;28;20060;-79
2021/12/20 10:01:03;;;;;;;33.67;5.90;;;4.70;99.90;;;;;;5069376;28;20402;-84
2021/12/20 10:03:28;;;;;;;15.40;3.53;;;4.80;99.90;;;;;;5057419;28;20040;-79
2021/12/20 10:05:56;;;;;;;11.45;3.08;;;4.80;99.90;;;;;;5064670;28;20117;-78
2021/12/20 10:08:31;;;;;;;24.63;5.15;;;4.80;99.90;;;;;;5053929;28;20044;-78
2021/12/20 10:10:59;;;;;;;19.45;5.97;;;4.90;99.90;;;;;;5057632;28;20090;-78
2021/12/20 10:13:37;;;;;;;25.42;5.38;;;4.90;99.90;;;;;;5068789;28;20079;-78
2021/12/20 10:16:13;;;;;;;17.52;5.45;;;5.00;99.90;;;;;;5058409;28;20103;-78
2021/12/20 10:18:39;;;;;;;19.65;4.78;;;5.10;99.90;;;;;;5072744;28;20037;-78
2021/12/20 10:21:04;;;;;;;26.77;6.15;;;5.00;99.90;;;;;;5053927;28;20395;-78
2021/12/20 10:23:32;;;;;;;15.43;3.38;;;5.10;99.90;;;;;;5072455;28;20399;-81
2021/12/20 10:26:09;;;;;;;31.77;5.30;;;5.20;99.90;;;;;;5072535;28;20094;-82
2021/12/20 10:28:36;;;;;;;22.10;5.00;;;5.20;99.90;;;;;;5088106;28;20036;-82
2021/12/20 10:31:07;;;;;;;35.83;7.20;;;5.20;99.90;;;;;;5073400;28;20052;-82
2021/12/20 10:33:33;;;;;;;20.80;4.65;;;5.20;99.90;;;;;;5089071;28;20047;-83
2021/12/20 10:36:02;;;;;;;28.00;5.90;;;5.30;99.90;;;;;;5077510;28;20047;-84
2021/12/20 10:38:37;;;;;;;37.20;8.10;;;5.30;99.90;;;;;;5073866;28;20047;-82
2021/12/20 10:41:11;;;;;;;23.95;4.32;;;5.30;99.90;;;;;;5092151;28;20152;-83
2021/12/20 10:43:53;;;;;;;23.23;6.63;;;5.40;99.90;;;;;;5076598;28;20059;-82
2021/12/20 10:46:20;;;;;;;26.92;4.20;;;5.40;99.90;;;;;;5053243;28;20048;-83
2021/12/20 10:48:49;;;;;;;27.63;5.85;;;5.50;99.90;;;;;;5081277;28;20032;-81
2021/12/20 10:51:17;;;;;;;30.97;6.20;;;5.50;99.90;;;;;;5083227;28;20048;-81
2021/12/20 10:53:48;;;;;;;35.80;8.38;;;5.50;99.90;;;;;;5078178;28;21264;-77
2021/12/20 10:56:14;;;;;;;23.67;4.90;;;5.60;99.90;;;;;;5054691;28;20056;-72
2021/12/20 10:58:40;;;;;;;35.30;6.10;;;5.50;99.90;;;;;;5081813;28;20055;-76
2021/12/20 11:01:20;;;;;;;25.40;5.95;;;5.60;99.90;;;;;;5069062;28;20048;-79
2021/12/20 11:04:07;;;;;;;37.50;7.03;;;5.70;99.90;;;;;;5076185;28;20044;-80
2021/12/20 11:06:56;;;;;;;24.67;5.43;;;5.80;99.90;;;;;;5074217;28;20044;-79
2021/12/20 11:09:24;;;;;;;41.47;4.82;;;5.80;99.90;;;;;;5079305;28;20043;-80
2021/12/20 11:11:56;;;;;;;33.13;6.75;;;5.90;99.90;;;;;;5073432;28;20045;-75
2021/12/20 11:14:26;;;;;;;42.88;7.38;;;5.80;99.90;;;;;;5072346;28;20048;-78
2021/12/20 11:16:55;;;;;;;26.05;5.28;;;5.90;99.90;;;;;;5053508;28;20454;-77
2021/12/20 11:19:29;;;;;;;23.35;5.50;;;6.00;99.90;;;;;;5087600;28;20418;-77
2021/12/20 11:22:01;;;;;;;46.55;6.15;;;6.00;99.90;;;;;;5060031;28;20045;-77
2021/12/20 11:24:32;;;;;;;25.77;6.10;;;6.10;99.90;;;;;;5070794;28;20053;-80
2021/12/20 11:27:00;;;;;;;42.35;8.38;;;6.10;99.90;;;;;;5071269;28;20045;-79
2021/12/20 11:29:26;;;;;;;51.33;8.07;;;6.10;99.90;;;;;;5055899;28;20043;-79
2021/12/20 11:31:54;;;;;;;26.30;4.40;;;6.10;99.90;;;;;;5091424;28;20044;-79
2021/12/20 11:34:20;;;;;;;29.95;7.35;;;6.20;99.90;;;;;;5072218;28;20070;-81
2021/12/20 11:36:46;;;;;;;21.85;4.65;;;6.20;99.90;;;;;;5058763;28;20043;-80
2021/12/20 11:39:12;;;;;;;35.40;6.57;;;6.20;99.90;;;;;;5071403;28;20044;-80
2021/12/20 11:41:38;;;;;;;31.67;7.57;;;6.20;99.90;;;;;;5070896;28;20036;-80
2021/12/20 11:44:07;;;;;;;23.98;5.70;;;6.20;99.90;;;;;;5071116;28;20048;-80
2021/12/20 11:46:46;;;;;;;45.00;8.65;;;6.20;99.90;;;;;;5070534;28;20455;-80
2021/12/20 11:49:18;;;;;;;32.42;7.57;;;6.30;99.90;;;;;;5070127;28;20394;-80
2021/12/20 11:51:59;;;;;;;25.02;6.88;;;6.30;99.90;;;;;;5072757;28;20664;-79
2021/12/20 11:54:34;;;;;;;21.52;4.97;;;6.40;99.90;;;;;;5070103;28;20048;-79
2021/12/20 11:57:00;;;;;;;26.50;5.70;;;6.40;99.90;;;;;;5052747;28;20058;-80
2021/12/20 11:59:52;;;;;;;33.35;6.68;;;6.30;99.90;;;;;;5069435;28;20127;-80
2021/12/20 12:02:46;;;;;;;30.88;5.95;;;6.30;99.90;;;;;;5070026;28;20044;-79
2021/12/20 12:05:18;;;;;;;44.78;7.63;;;6.40;99.90;;;;;;5052031;28;20060;-81
2021/12/20 12:07:46;;;;;;;22.00;5.93;;;6.30;99.90;;;;;;5058675;28;20123;-80
2021/12/20 12:10:14;;;;;;;26.17;6.80;;;6.40;99.90;;;;;;5072778;28;20448;-80
2021/12/20 12:12:44;;;;;;;23.50;6.05;;;6.30;99.90;;;;;;5084584;28;20041;-81
2021/12/20 12:15:31;;;;;;;23.58;5.88;;;6.40;99.90;;;;;;5051621;28;20399;-81
2021/12/20 12:18:03;;;;;;;28.25;6.43;;;6.40;99.90;;;;;;5070203;28;20047;-81
2021/12/20 12:20:52;;;;;;;28.13;3.70;;;6.50;99.90;;;;;;5070073;28;20119;-81
2021/12/20 12:23:22;;;;;;;26.10;5.55;;;6.40;99.90;;;;;;5089804;28;20077;-81
2021/12/20 12:25:55;;;;;;;19.13;4.60;;;6.40;99.90;;;;;;5090563;28;20040;-79
2021/12/20 12:28:44;;;;;;;16.88;3.67;;;6.50;99.90;;;;;;5056212;28;20105;-79
2021/12/20 12:31:10;;;;;;;17.30;4.80;;;6.50;99.90;;;;;;5058131;28;20052;-80
2021/12/20 12:33:39;;;;;;;22.58;4.53;;;6.50;99.90;;;;;;5085715;28;20037;-80
2021/12/20 12:36:26;;;;;;;15.63;3.08;;;6.50;99.90;;;;;;5082571;28;20385;-79
2021/12/20 12:39:01;;;;;;;19.80;5.25;;;6.60;99.90;;;;;;5075484;28;20109;-80
2021/12/20 12:41:31;;;;;;;23.48;4.10;;;6.60;99.90;;;;;;5069362;28;20098;-79
2021/12/20 12:43:58;;;;;;;20.95;5.13;;;6.60;99.90;;;;;;5051121;28;20049;-80
2021/12/20 12:46:45;;;;;;;21.98;3.22;;;6.60;99.90;;;;;;5070740;28;20050;-81
2021/12/20 12:49:22;;;;;;;17.98;3.50;;;6.60;99.90;;;;;;5088943;28;20119;-80
2021/12/20 12:51:52;;;;;;;26.48;5.80;;;6.60;99.90;;;;;;5085399;28;20127;-79
2021/12/20 12:54:54;;;;;;;13.63;3.03;;;6.60;99.90;;;;;;5090819;28;20050;-80
2021/12/20 12:57:20;;;;;;;25.83;4.82;;;6.70;99.90;;;;;;5063548;28;20045;-79
2021/12/20 12:59:58;;;;;;;22.65;3.80;;;6.70;99.90;;;;;;5050948;28;20539;-78
2021/12/20 13:02:29;;;;;;;12.13;3.42;;;6.70;99.90;;;;;;5053669;28;20052;-78
2021/12/20 13:05:07;;;;;;;17.67;4.13;;;6.80;99.90;;;;;;5072060;28;20074;-82
2021/12/20 13:07:34;;;;;;;19.55;4.70;;;6.70;99.90;;;;;;5067200;28;20041;-81
2021/12/20 13:10:05;;;;;;;21.95;4.22;;;6.60;99.90;;;;;;5070879;28;20033;-81